createdAt,value
2018-06-30T00:01:52.844Z,5.60
2018-06-30T00:04:21.842Z,6.40
2018-06-30T00:06:50.826Z,6.20
2018-06-30T00:09:19.890Z,5.50
2018-06-30T00:11:48.898Z,6.20
2018-06-30T00:14:17.884Z,6.17
2018-06-30T00:16:46.584Z,6.23
2018-06-30T00:19:15.501Z,6.70
2018-06-30T00:21:44.581Z,6.77
2018-06-30T00:24:13.597Z,6.40
2018-06-30T00:26:42.589Z,6.70
2018-06-30T00:29:11.579Z,6.97
2018-06-30T00:31:40.660Z,7.17
2018-06-30T00:34:09.641Z,6.97
2018-06-30T00:36:38.642Z,7.43
2018-06-30T00:39:08.945Z,7.07
2018-06-30T00:41:37.937Z,7.50
2018-06-30T00:44:06.961Z,7.53
2018-06-30T00:46:35.925Z,8.37
2018-06-30T00:49:04.928Z,7.83
2018-06-30T00:51:33.957Z,7.63
2018-06-30T00:54:02.968Z,7.53
2018-06-30T00:56:31.945Z,8.23
2018-06-30T00:59:01.057Z,7.90
2018-06-30T01:01:30.073Z,8.57
2018-06-30T01:03:59.083Z,8.90
2018-06-30T01:06:28.063Z,8.20
2018-06-30T01:08:57.037Z,8.70
2018-06-30T01:11:26.155Z,9.27
2018-06-30T01:13:55.109Z,9.00
2018-06-30T01:16:24.291Z,9.40
2018-06-30T01:18:53.337Z,9.00
2018-06-30T01:21:22.989Z,9.40
2018-06-30T01:23:51.971Z,9.20
2018-06-30T01:26:21.005Z,8.83
2018-06-30T01:28:50.061Z,9.93
2018-06-30T01:31:19.044Z,9.17
2018-06-30T01:33:48.039Z,9.93
2018-06-30T01:36:17.082Z,9.90
2018-06-30T01:38:46.073Z,9.70
2018-06-30T01:41:15.078Z,9.20
2018-06-30T01:43:44.080Z,9.70
2018-06-30T01:46:12.798Z,9.77
2018-06-30T01:48:41.700Z,9.50
2018-06-30T01:51:10.708Z,9.90
2018-06-30T01:53:39.682Z,9.73
2018-06-30T01:56:08.706Z,9.77
2018-06-30T01:58:37.687Z,10.07
2018-06-30T02:01:06.666Z,9.63
2018-06-30T02:03:35.690Z,10.13
2018-06-30T02:06:04.846Z,10.20
2018-06-30T02:08:33.832Z,10.97
2018-06-30T02:11:02.800Z,10.17
2018-06-30T02:13:31.832Z,10.97
2018-06-30T02:16:00.902Z,11.27
2018-06-30T02:18:29.880Z,11.20
2018-06-30T02:20:58.896Z,11.47
2018-06-30T02:23:27.925Z,10.87
2018-06-30T02:25:56.976Z,11.13
2018-06-30T02:28:25.938Z,11.70
2018-06-30T02:30:54.944Z,12.20
2018-06-30T02:33:23.982Z,11.07
2018-06-30T02:35:53.012Z,11.43
2018-06-30T02:38:21.972Z,11.63
2018-06-30T02:40:51.012Z,12.23
2018-06-30T02:43:20.040Z,11.57
2018-06-30T02:45:49.088Z,12.10
2018-06-30T02:48:18.103Z,12.60
2018-06-30T02:50:47.104Z,12.63
2018-06-30T02:53:15.856Z,13.20
2018-06-30T02:55:44.830Z,13.13
2018-06-30T02:58:13.808Z,12.70
2018-06-30T03:00:43.022Z,12.93
2018-06-30T03:03:12.073Z,13.93
2018-06-30T03:05:41.198Z,12.40
2018-06-30T03:08:10.194Z,13.07
2018-06-30T03:10:39.288Z,13.20
2018-06-30T03:13:08.311Z,13.37
2018-06-30T03:15:37.309Z,13.00
2018-06-30T03:18:06.990Z,13.33
2018-06-30T03:20:35.992Z,13.23
2018-06-30T03:23:04.997Z,12.83
2018-06-30T03:25:34.150Z,13.90
2018-06-30T03:28:02.925Z,14.07
2018-06-30T03:30:31.877Z,12.80
2018-06-30T03:33:01.068Z,13.03
2018-06-30T03:35:30.032Z,14.27
2018-06-30T03:37:59.065Z,15.20
2018-06-30T03:40:28.029Z,14.27
2018-06-30T03:42:57.054Z,13.70
2018-06-30T03:45:26.150Z,13.37
2018-06-30T03:47:55.228Z,13.17
2018-06-30T03:50:24.219Z,13.53
2018-06-30T03:52:53.549Z,12.53
2018-06-30T03:55:23.050Z,14.10
2018-06-30T03:57:52.205Z,14.43
2018-06-30T04:00:21.271Z,14.23
2018-06-30T04:02:50.225Z,14.43
2018-06-30T04:05:19.265Z,15.07
2018-06-30T04:07:48.301Z,14.70
2018-06-30T04:10:18.403Z,13.70
2018-06-30T04:12:47.833Z,13.27
2018-06-30T04:15:17.004Z,13.17
2018-06-30T04:17:46.012Z,14.87
2018-06-30T04:20:15.022Z,14.53
2018-06-30T04:22:44.015Z,14.17
2018-06-30T04:25:13.023Z,13.93
2018-06-30T04:27:42.009Z,14.27
2018-06-30T04:30:11.000Z,14.50
2018-06-30T04:32:40.022Z,14.97
2018-06-30T04:35:09.045Z,13.67
2018-06-30T04:37:38.089Z,15.00
2018-06-30T04:40:07.157Z,14.07
2018-06-30T04:42:36.116Z,15.43
2018-06-30T04:45:05.224Z,15.20
2018-06-30T04:47:34.263Z,15.00
2018-06-30T04:50:03.405Z,14.97
2018-06-30T04:52:32.394Z,14.33
2018-06-30T04:55:01.401Z,14.57
2018-06-30T04:57:30.448Z,15.57
2018-06-30T04:59:59.468Z,15.70
2018-06-30T05:02:28.695Z,15.27
2018-06-30T05:04:57.886Z,14.37
2018-06-30T05:07:26.971Z,14.10
2018-06-30T05:09:55.972Z,14.83
2018-06-30T05:12:24.964Z,14.77
2018-06-30T05:14:54.002Z,14.40
2018-06-30T05:17:23.042Z,15.90
2018-06-30T05:19:52.072Z,14.40
2018-06-30T05:22:21.246Z,13.63
2018-06-30T05:24:51.028Z,14.57
2018-06-30T05:27:19.795Z,14.07
2018-06-30T05:29:48.807Z,14.10
2018-06-30T05:32:17.788Z,13.70
2018-06-30T05:34:46.785Z,13.47
2018-06-30T05:37:15.874Z,13.43
2018-06-30T05:39:44.896Z,13.43
2018-06-30T05:42:13.988Z,13.83
2018-06-30T05:44:42.993Z,14.23
2018-06-30T05:47:12.017Z,15.33
2018-06-30T05:49:41.026Z,14.77
2018-06-30T05:52:10.084Z,15.73
2018-06-30T05:54:39.114Z,16.10
2018-06-30T05:57:08.889Z,15.67
2018-06-30T05:59:37.882Z,15.27
2018-06-30T06:02:06.929Z,16.73
2018-06-30T06:04:35.922Z,15.97
2018-06-30T06:07:05.329Z,16.33
2018-06-30T06:09:34.372Z,17.80
2018-06-30T06:12:03.482Z,17.63
2018-06-30T06:14:32.560Z,19.20
2018-06-30T06:17:01.652Z,18.73
2018-06-30T06:19:30.676Z,17.17
2018-06-30T06:21:59.684Z,17.53
2018-06-30T06:24:28.637Z,18.53
2018-06-30T06:26:57.654Z,18.53
2018-06-30T06:29:26.658Z,19.07
2018-06-30T06:31:55.640Z,18.60
2018-06-30T06:34:24.713Z,18.97
2018-06-30T06:36:53.962Z,19.63
2018-06-30T06:39:22.973Z,18.73
2018-06-30T06:41:51.953Z,18.93
2018-06-30T06:44:20.937Z,19.17
2018-06-30T06:46:49.929Z,18.97
2018-06-30T06:49:19.051Z,19.63
2018-06-30T06:51:48.115Z,19.77
2018-06-30T06:54:17.179Z,19.57
2018-06-30T06:56:46.192Z,19.83
2018-06-30T06:59:15.358Z,19.23
2018-06-30T07:01:44.360Z,20.00
2018-06-30T07:04:13.367Z,18.97
2018-06-30T07:06:43.000Z,18.77
2018-06-30T07:09:12.557Z,18.43
2018-06-30T07:11:41.520Z,19.20
2018-06-30T07:14:11.260Z,19.83
2018-06-30T07:16:40.262Z,18.27
2018-06-30T07:19:09.493Z,18.33
2018-06-30T07:21:38.520Z,19.10
2018-06-30T07:24:07.561Z,19.20
2018-06-30T07:26:36.634Z,18.70
2018-06-30T07:29:05.673Z,17.70
2018-06-30T07:31:34.667Z,19.13
2018-06-30T07:34:03.720Z,19.80
2018-06-30T07:36:32.813Z,19.10
2018-06-30T07:39:01.830Z,20.53
2018-06-30T07:41:30.902Z,19.60
2018-06-30T07:43:59.999Z,18.93
2018-06-30T07:46:29.043Z,19.37
2018-06-30T07:48:58.105Z,17.13
2018-06-30T07:51:27.135Z,19.23
2018-06-30T07:53:56.244Z,18.90
2018-06-30T07:56:25.274Z,18.17
2018-06-30T07:58:54.305Z,18.90
2018-06-30T08:01:23.313Z,19.70
2018-06-30T08:03:52.325Z,20.13
2018-06-30T08:06:21.335Z,18.17
2018-06-30T08:08:50.309Z,18.80
2018-06-30T08:11:19.433Z,18.90
2018-06-30T08:13:48.416Z,18.27
2018-06-30T08:16:17.421Z,19.97
2018-06-30T08:18:46.445Z,18.67
2018-06-30T08:21:15.528Z,19.13
2018-06-30T08:23:44.542Z,19.90
2018-06-30T08:26:13.899Z,19.20
2018-06-30T08:28:43.000Z,18.57
2018-06-30T08:31:12.057Z,18.87
2018-06-30T08:33:41.133Z,18.40
2018-06-30T08:36:10.185Z,17.37
2018-06-30T08:38:39.144Z,19.67
2018-06-30T08:41:07.909Z,17.93
2018-06-30T08:43:36.784Z,17.77
2018-06-30T08:46:05.845Z,15.57
2018-06-30T08:48:34.913Z,17.20
2018-06-30T08:51:04.010Z,15.63
2018-06-30T08:53:32.980Z,16.67
2018-06-30T08:56:01.948Z,16.07
2018-06-30T08:58:31.102Z,15.93
2018-06-30T09:01:00.146Z,15.97
2018-06-30T09:03:29.815Z,14.90
2018-06-30T09:05:58.794Z,15.17
2018-06-30T09:08:27.856Z,14.97
2018-06-30T09:10:56.924Z,15.57
2018-06-30T09:13:25.926Z,15.97
2018-06-30T09:15:55.015Z,13.47
2018-06-30T09:18:23.998Z,15.10
2018-06-30T09:20:53.110Z,16.53
2018-06-30T09:23:22.088Z,16.50
2018-06-30T09:25:51.093Z,14.60
2018-06-30T09:28:20.124Z,14.63
2018-06-30T09:30:49.196Z,13.47
2018-06-30T09:33:18.188Z,14.27
2018-06-30T09:35:47.185Z,14.50
2018-06-30T09:38:16.200Z,13.40
2018-06-30T09:40:45.259Z,12.63
2018-06-30T09:43:14.226Z,13.17
2018-06-30T09:45:43.192Z,12.13
2018-06-30T09:48:12.266Z,11.70
2018-06-30T09:50:41.285Z,11.20
2018-06-30T09:53:10.247Z,11.87
2018-06-30T09:55:39.279Z,11.10
2018-06-30T09:58:08.394Z,11.80
2018-06-30T10:01:10.122Z,11.63
2018-06-30T10:03:39.237Z,10.00
2018-06-30T10:06:08.242Z,11.13
2018-06-30T10:08:37.309Z,11.47
2018-06-30T10:11:06.357Z,11.57
2018-06-30T10:13:35.370Z,10.13
2018-06-30T10:16:04.393Z,9.40
2018-06-30T10:18:33.419Z,9.60
2018-06-30T10:21:02.693Z,9.10
2018-06-30T10:23:31.521Z,7.93
2018-06-30T10:26:00.602Z,8.80
2018-06-30T10:28:29.675Z,9.23
2018-06-30T10:30:58.687Z,8.80
2018-06-30T10:33:27.775Z,9.13
2018-06-30T10:35:56.737Z,9.80
2018-06-30T10:38:25.733Z,9.73
2018-06-30T10:40:54.738Z,8.77
2018-06-30T10:43:23.685Z,9.17
2018-06-30T10:45:52.665Z,8.03
2018-06-30T10:48:21.846Z,8.30
2018-06-30T10:50:50.872Z,8.73
2018-06-30T10:53:20.021Z,7.93
2018-06-30T10:55:49.045Z,7.93
2018-06-30T10:58:18.055Z,8.30
2018-06-30T11:00:47.041Z,8.43
2018-06-30T11:03:16.065Z,8.37
2018-06-30T11:05:45.145Z,8.20
2018-06-30T11:08:14.133Z,8.87
2018-06-30T11:10:43.142Z,8.10
2018-06-30T11:13:12.156Z,7.63
2018-06-30T11:15:41.121Z,8.20
2018-06-30T11:18:10.104Z,7.37
2018-06-30T11:20:39.124Z,6.90
2018-06-30T11:23:08.135Z,7.10
2018-06-30T11:25:37.237Z,7.30
2018-06-30T11:28:05.944Z,6.07
2018-06-30T11:30:34.890Z,6.67
2018-06-30T11:33:03.891Z,5.97
2018-06-30T11:35:32.859Z,7.10
2018-06-30T11:38:01.850Z,6.43
2018-06-30T11:40:31.093Z,7.27
2018-06-30T11:43:00.077Z,6.47
2018-06-30T11:45:29.072Z,6.53
2018-06-30T11:47:58.050Z,7.07
2018-06-30T11:50:27.092Z,6.40
2018-06-30T11:52:56.069Z,6.40
2018-06-30T11:55:25.177Z,6.27
2018-06-30T11:57:54.120Z,6.43
2018-06-30T12:00:23.138Z,5.83
2018-06-30T12:02:52.130Z,5.93
2018-06-30T12:05:21.124Z,5.43
2018-06-30T12:07:50.092Z,4.27
2018-06-30T12:10:19.081Z,4.03
2018-06-30T12:12:48.097Z,4.20
2018-06-30T12:15:17.052Z,4.67
2018-06-30T12:17:46.016Z,4.07
2018-06-30T12:20:15.009Z,4.07
2018-06-30T12:22:44.152Z,4.30
2018-06-30T12:25:13.078Z,4.47
2018-06-30T12:27:42.110Z,4.27
2018-06-30T12:30:11.132Z,4.67
2018-06-30T12:32:40.250Z,4.50
2018-06-30T12:35:09.530Z,4.60
2018-06-30T12:37:38.497Z,4.00
2018-06-30T12:40:07.635Z,4.53
2018-06-30T12:42:36.617Z,4.17
2018-06-30T12:45:05.851Z,4.00
2018-06-30T12:47:34.857Z,4.20
2018-06-30T12:50:03.849Z,4.77
2018-06-30T12:52:32.947Z,5.37
2018-06-30T12:55:01.981Z,5.37
2018-06-30T12:57:30.996Z,4.70
2018-06-30T13:00:00.001Z,4.80
2018-06-30T13:02:28.983Z,5.00
2018-06-30T13:04:57.968Z,4.83
2018-06-30T13:07:26.963Z,4.30
2018-06-30T13:09:55.952Z,4.77
2018-06-30T13:12:24.693Z,4.20
2018-06-30T13:14:53.662Z,5.07
2018-06-30T13:17:22.674Z,5.40
2018-06-30T13:19:51.707Z,4.80
2018-06-30T13:22:20.844Z,4.60
2018-06-30T13:24:49.862Z,5.30
2018-06-30T13:27:18.858Z,4.53
2018-06-30T13:29:47.850Z,5.40
2018-06-30T13:32:16.939Z,5.40
2018-06-30T13:34:45.937Z,4.77
2018-06-30T13:37:14.959Z,4.40
2018-06-30T13:39:44.082Z,4.57
2018-06-30T13:42:13.069Z,4.80
2018-06-30T13:44:42.069Z,5.60
2018-06-30T13:47:11.072Z,5.20
2018-06-30T13:49:40.033Z,4.60
2018-06-30T13:52:09.120Z,4.57
2018-06-30T13:54:38.147Z,4.90
2018-06-30T13:57:07.261Z,4.90
2018-06-30T13:59:36.214Z,4.80
2018-06-30T14:02:05.525Z,5.10
2018-06-30T14:04:34.567Z,5.30
2018-06-30T14:07:03.604Z,5.00
2018-06-30T14:09:32.517Z,5.20
2018-06-30T14:12:01.553Z,5.10
2018-06-30T14:14:30.549Z,4.60
2018-06-30T14:16:59.595Z,4.97
2018-06-30T14:19:28.609Z,4.70
2018-06-30T14:21:57.417Z,4.27
2018-06-30T14:24:26.337Z,4.70
2018-06-30T14:26:55.501Z,4.50
2018-06-30T14:29:24.533Z,5.07
2018-06-30T14:31:53.525Z,4.80
2018-06-30T14:34:22.525Z,5.50
2018-06-30T14:36:51.535Z,4.73
2018-06-30T14:39:20.580Z,4.67
2018-06-30T14:41:49.645Z,5.13
2018-06-30T14:44:26.209Z,4.80
2018-06-30T14:46:55.381Z,5.20
2018-06-30T14:49:24.437Z,4.67
2018-06-30T14:51:53.769Z,4.83
2018-06-30T14:54:22.797Z,5.10
2018-06-30T14:56:51.505Z,4.57
2018-06-30T14:59:20.720Z,4.90
2018-06-30T15:01:50.089Z,5.20
2018-06-30T15:04:19.128Z,5.13
2018-06-30T15:06:48.137Z,4.70
2018-06-30T15:09:17.288Z,4.80
2018-06-30T15:11:46.510Z,4.97
2018-06-30T15:14:15.684Z,4.83
2018-06-30T15:16:44.796Z,5.00
2018-06-30T15:19:13.762Z,5.07
2018-06-30T15:21:43.303Z,4.70
2018-06-30T15:24:12.356Z,4.43
2018-06-30T15:26:41.756Z,4.60
2018-06-30T15:29:10.838Z,4.60
2018-06-30T15:31:39.873Z,5.10
2018-06-30T15:34:08.899Z,4.90
2018-06-30T15:36:37.978Z,4.80
2018-06-30T15:39:08.700Z,4.80
2018-06-30T15:41:37.730Z,4.70
2018-06-30T15:44:07.108Z,4.87
2018-06-30T15:46:36.123Z,4.87
2018-06-30T15:49:05.550Z,4.73
2018-06-30T15:51:34.594Z,4.57
2018-06-30T15:54:04.087Z,5.40
2018-06-30T15:56:33.074Z,5.20
2018-06-30T15:59:02.073Z,5.30
2018-06-30T16:01:31.798Z,5.13
2018-06-30T16:04:00.894Z,5.03
2018-06-30T16:06:30.404Z,4.80
2018-06-30T16:08:59.406Z,4.90
2018-06-30T16:11:28.490Z,5.10
2018-06-30T16:13:57.469Z,4.60
2018-06-30T16:16:26.518Z,4.93
2018-06-30T16:18:55.506Z,4.97
2018-06-30T16:21:24.715Z,5.13
2018-06-30T16:23:53.812Z,5.90
2018-06-30T16:26:22.832Z,5.10
2018-06-30T16:28:52.002Z,5.00
2018-06-30T16:31:21.002Z,5.67
2018-06-30T16:33:50.120Z,4.70
2018-06-30T16:36:19.240Z,4.70
2018-06-30T16:38:48.334Z,4.80
2018-06-30T16:41:17.326Z,4.80
2018-06-30T16:43:46.369Z,4.47
2018-06-30T16:46:15.362Z,4.53
2018-06-30T16:48:44.354Z,4.73
2018-06-30T16:51:13.388Z,5.10
2018-06-30T16:53:42.391Z,4.53
2018-06-30T16:56:11.803Z,4.60
2018-06-30T16:58:40.983Z,4.73
2018-06-30T17:01:10.011Z,5.13
2018-06-30T17:03:39.051Z,4.87
2018-06-30T17:06:08.084Z,5.00
2018-06-30T17:08:37.105Z,5.10
2018-06-30T17:11:06.115Z,5.00
2018-06-30T17:13:35.151Z,4.63
2018-06-30T17:16:04.206Z,5.07
2018-06-30T17:18:33.202Z,5.27
2018-06-30T17:21:02.261Z,4.90
2018-06-30T17:23:31.237Z,5.03
2018-06-30T17:26:00.447Z,4.90
2018-06-30T17:28:29.735Z,5.10
2018-06-30T17:30:58.757Z,5.20
2018-06-30T17:33:27.805Z,4.70
2018-06-30T17:35:58.077Z,4.70
2018-06-30T17:38:27.245Z,4.50
2018-06-30T17:40:56.279Z,4.50
2018-06-30T17:43:25.264Z,4.70
2018-06-30T17:45:54.306Z,4.60
2018-06-30T17:48:23.289Z,4.63
2018-06-30T17:50:52.322Z,4.20
2018-06-30T17:53:21.444Z,4.40
2018-06-30T17:55:50.433Z,4.50
2018-06-30T17:58:19.438Z,4.47
2018-06-30T18:00:48.481Z,4.63
2018-06-30T18:03:17.572Z,4.17
2018-06-30T18:05:46.745Z,4.40
2018-06-30T18:08:15.441Z,4.50
2018-06-30T18:10:44.771Z,4.17
2018-06-30T18:13:13.952Z,3.87
2018-06-30T18:15:43.065Z,4.17
2018-06-30T18:18:13.930Z,3.87
2018-06-30T18:20:42.960Z,4.10
2018-06-30T18:23:12.017Z,3.77
2018-06-30T18:25:41.003Z,4.00
2018-06-30T18:28:10.028Z,3.90
2018-06-30T18:30:39.002Z,3.67
2018-06-30T18:33:08.019Z,4.30
2018-06-30T18:35:37.029Z,3.73
2018-06-30T18:38:06.156Z,4.13
2018-06-30T18:40:35.173Z,3.90
2018-06-30T18:43:04.138Z,3.47
2018-06-30T18:45:33.338Z,3.50
2018-06-30T18:48:02.410Z,3.63
2018-06-30T18:50:31.372Z,3.77
2018-06-30T18:53:00.356Z,3.60
2018-06-30T18:55:29.431Z,3.33
2018-06-30T18:57:58.794Z,3.70
2018-06-30T19:00:27.766Z,3.13
2018-06-30T19:02:56.782Z,3.30
2018-06-30T19:05:25.786Z,3.30
2018-06-30T19:07:55.074Z,3.33
2018-06-30T19:10:24.170Z,3.47
2018-06-30T19:12:54.054Z,3.40
2018-06-30T19:15:22.770Z,3.73
2018-06-30T19:17:51.472Z,3.60
2018-06-30T19:20:20.381Z,4.10
2018-06-30T19:22:49.340Z,4.03
2018-06-30T19:25:18.395Z,4.10
2018-06-30T19:27:47.456Z,4.27
2018-06-30T19:30:16.474Z,4.50
2018-06-30T19:32:45.534Z,4.50
2018-06-30T19:35:14.641Z,4.70
2018-06-30T19:37:43.722Z,3.90
2018-06-30T19:40:12.734Z,4.63
2018-06-30T19:42:41.745Z,4.57
2018-06-30T19:45:10.742Z,4.50
2018-06-30T19:47:39.737Z,4.03
2018-06-30T19:50:08.745Z,4.00
2018-06-30T19:52:37.740Z,4.40
2018-06-30T19:55:06.778Z,4.53
2018-06-30T19:57:35.837Z,4.37
2018-06-30T20:00:05.614Z,4.13
2018-06-30T20:02:34.712Z,3.80
2018-06-30T20:05:04.102Z,4.10
2018-06-30T20:07:37.406Z,4.13
2018-06-30T20:10:06.563Z,3.67
2018-06-30T20:12:35.526Z,3.50
2018-06-30T20:15:04.596Z,3.57
2018-06-30T20:17:33.634Z,3.60
2018-06-30T20:20:02.605Z,3.43
2018-06-30T20:22:31.611Z,3.10
2018-06-30T20:25:00.651Z,3.33
2018-06-30T20:27:29.849Z,2.90
2018-06-30T20:29:58.841Z,3.17
2018-06-30T20:32:27.847Z,2.90
2018-06-30T20:34:57.745Z,3.03
2018-06-30T20:37:27.051Z,3.40
2018-06-30T20:39:56.318Z,2.80
2018-06-30T20:42:25.315Z,3.10
2018-06-30T20:44:54.353Z,2.80
2018-06-30T20:47:23.429Z,2.63
2018-06-30T20:49:52.479Z,3.20
2018-06-30T20:52:21.457Z,2.77
2018-06-30T20:54:50.469Z,3.40
2018-06-30T20:57:19.457Z,2.80
2018-06-30T20:59:48.448Z,2.57
2018-06-30T21:02:17.429Z,2.27
2018-06-30T21:04:46.495Z,2.40
2018-06-30T21:07:15.487Z,2.73
2018-06-30T21:09:44.521Z,2.40
2018-06-30T21:12:13.513Z,2.70
2018-06-30T21:14:42.508Z,2.33
2018-06-30T21:17:11.503Z,2.20
2018-06-30T21:19:40.497Z,2.20
2018-06-30T21:22:09.545Z,2.20
2018-06-30T21:24:38.537Z,2.20
2018-06-30T21:27:07.839Z,2.23
2018-06-30T21:29:36.897Z,2.27
2018-06-30T21:32:06.135Z,2.30
2018-06-30T21:34:35.231Z,2.17
2018-06-30T21:37:04.271Z,1.90
2018-06-30T21:39:33.259Z,2.23
2018-06-30T21:42:02.245Z,2.00
2018-06-30T21:44:31.244Z,1.73
2018-06-30T21:47:00.251Z,2.20
2018-06-30T21:49:29.395Z,1.80
2018-06-30T21:51:58.402Z,1.93
2018-06-30T21:54:27.366Z,1.90
2018-06-30T21:56:56.436Z,2.17
2018-06-30T21:59:25.423Z,2.20
2018-06-30T22:01:54.448Z,1.70
2018-06-30T22:04:23.457Z,2.10
2018-06-30T22:06:52.483Z,1.80
2018-06-30T22:09:22.176Z,1.70
2018-06-30T22:11:51.337Z,1.87
2018-06-30T22:14:20.376Z,2.00
2018-06-30T22:16:49.408Z,2.10
2018-06-30T22:19:18.518Z,1.93
2018-06-30T22:21:54.006Z,1.83
2018-06-30T22:24:23.042Z,1.70
2018-06-30T22:26:52.093Z,1.90
2018-06-30T22:29:21.154Z,2.10
2018-06-30T22:31:50.158Z,1.73
2018-06-30T22:34:19.150Z,1.80
2018-06-30T22:36:48.160Z,1.80
2018-06-30T22:39:27.233Z,1.60
2018-06-30T22:41:56.202Z,1.80
2018-06-30T22:44:25.493Z,1.97
2018-06-30T22:46:54.544Z,1.60
2018-06-30T22:49:23.543Z,2.10
2018-06-30T22:51:52.546Z,1.70
2018-06-30T22:54:21.563Z,1.87
2018-06-30T22:56:50.536Z,1.73
2018-06-30T22:59:19.564Z,1.57
2018-06-30T23:01:48.596Z,1.80
2018-06-30T23:04:17.797Z,1.70
2018-06-30T23:06:46.786Z,1.60
2018-06-30T23:09:15.816Z,1.70
2018-06-30T23:11:45.023Z,1.70
2018-06-30T23:14:14.010Z,1.70
2018-06-30T23:16:43.021Z,1.50
2018-06-30T23:19:12.057Z,1.40
2018-06-30T23:21:41.030Z,1.80
2018-06-30T23:24:09.998Z,1.60
2018-06-30T23:26:45.434Z,1.90
2018-06-30T23:29:14.432Z,1.80
2018-06-30T23:31:43.422Z,1.50
2018-06-30T23:34:12.381Z,1.50
2018-06-30T23:36:41.102Z,1.70
2018-06-30T23:39:11.086Z,1.70
2018-06-30T23:41:40.205Z,1.40
2018-06-30T23:44:09.365Z,1.70
2018-06-30T23:46:38.335Z,1.70
2018-06-30T23:49:07.351Z,1.70
2018-06-30T23:51:36.346Z,1.57
2018-06-30T23:54:05.325Z,1.70
2018-06-30T23:56:34.341Z,1.60
2018-06-30T23:59:03.925Z,1.50
